May Valley, Colorado
Current Conditions -  °F | °C
As of 12:53 AM on Monday 24 Nov 2014 (Local Time) from KLAA Reporting Station
Clear Clear  
Wind Chill: 17°   Ceiling: Unl
Heat Index: 27°   Visibility: 10mi
Dew Point: 21°   Wind: 12mph
Humidity: 78%   Direction: 270°W
Pressure: 29.9"   Gusts: NA
Location:  37.885°N, 102.667°W
Report Text: KLAA 240753Z AUTO 27010KT 10SM CLR M03/M06 A2990 RMK AO2 SLP128 T10281061
Loading
Personal Weather Stations






























Interactive Weather Map New forecast layout! Learn more

10-Day Weather Forecast

Advertisements
Track Severe Weather on mobile